Time;durP1;ratioP1;P1;durP2;ratioP2;P2;SDS_P1;SDS_P2;PMS_P1;PMS_P2;Temp;Humidity;BMP_temperature;BMP_pressure;BME280_temperature;BME280_humidity;BME280_pressure;Samples;Min_cycle;Max_cycle;Signal;HPM_P1;HPM_P2
2024/01/21 00:01:06;;;;;;;11.73;8.47;;;;;;;-2.92;99.35;150629.00;5037952;28;20475;-90
2024/01/21 00:03:33;;;;;;;15.53;10.10;;;;;;;-2.98;100.00;150612.34;5022279;28;21059;-89
2024/01/21 00:05:59;;;;;;;15.40;10.33;;;;;;;-3.06;100.00;150593.16;5017732;28;20870;-88
2024/01/21 00:08:26;;;;;;;18.00;10.30;;;;;;;-3.15;100.00;150570.13;5036077;28;20477;-89
2024/01/21 00:10:52;;;;;;;17.60;11.00;;;;;;;-3.22;100.00;150552.19;5026118;28;20533;-89
2024/01/21 00:13:19;;;;;;;16.73;11.70;;;;;;;-3.28;100.00;150536.84;5030322;28;20530;-89
2024/01/21 00:15:45;;;;;;;16.20;10.63;;;;;;;-3.37;100.00;150513.84;5006088;28;20446;-89
2024/01/21 00:18:13;;;;;;;16.20;10.67;;;;;;;-3.42;100.00;150501.03;5014290;28;20944;-89
2024/01/21 00:20:40;;;;;;;14.97;10.43;;;;;;;-3.47;100.00;150489.53;5014287;28;20413;-89
2024/01/21 00:23:07;;;;;;;12.77;9.97;;;;;;;-3.52;100.00;150475.47;5032138;28;20478;-89
2024/01/21 00:25:33;;;;;;;21.80;11.30;;;;;;;-3.63;100.00;150447.31;5012612;28;20558;-89
2024/01/21 00:27:59;;;;;;;15.43;11.23;;;;;;;-3.74;100.00;150420.47;5017722;28;21003;-89
2024/01/21 00:30:26;;;;;;;14.33;9.70;;;;;;;-3.81;100.00;150403.81;5016666;28;20888;-89
2024/01/21 00:32:53;;;;;;;18.00;11.17;;;;;;;-3.87;100.00;150388.50;5033652;28;20429;-89
2024/01/21 00:35:21;;;;;;;21.27;12.80;;;;;;;-3.89;100.00;150382.13;5027199;28;20856;-89
2024/01/21 00:37:47;;;;;;;15.17;10.03;;;;;;;-3.89;100.00;150383.34;5047983;28;20447;-89
2024/01/21 00:40:14;;;;;;;15.43;10.83;;;;;;;-3.86;100.00;150391.03;5010708;28;20819;-89
2024/01/21 00:42:40;;;;;;;12.90;9.67;;;;;;;-3.83;100.00;150398.72;5042987;28;21162;-89
2024/01/21 00:45:08;;;;;;;15.10;9.70;;;;;;;-3.81;100.00;150403.81;5036929;28;20457;-89
2024/01/21 00:47:34;;;;;;;14.20;9.30;;;;;;;-3.78;100.00;150411.50;5058271;28;20449;-88
2024/01/21 00:50:02;;;;;;;8.77;7.63;;;;;;;-3.78;100.00;150411.50;5020564;28;20487;-89
2024/01/21 00:52:30;;;;;;;13.13;8.87;;;;;;;-3.75;100.00;150417.91;5014231;28;20968;-89
2024/01/21 00:54:56;;;;;;;12.17;9.27;;;;;;;-3.75;100.00;150417.91;5029786;28;20523;-89
2024/01/21 00:57:23;;;;;;;11.00;8.80;;;;;;;-3.76;100.00;150416.59;5010976;28;20988;-88
2024/01/21 00:59:50;;;;;;;12.23;8.43;;;;;;;-3.74;100.00;150421.75;5021048;28;20514;-89
2024/01/21 01:02:16;;;;;;;10.83;8.10;;;;;;;-3.74;100.00;150421.75;5013941;28;20429;-88
2024/01/21 01:04:43;;;;;;;9.60;6.80;;;;;;;-3.72;100.00;150425.56;5023942;28;20431;-89
2024/01/21 01:07:09;;;;;;;9.47;7.73;;;;;;;-3.71;100.00;150429.38;5025737;28;20776;-89
2024/01/21 01:09:37;;;;;;;11.13;7.40;;;;;;;-3.74;100.00;150420.47;5016829;28;20540;-89
2024/01/21 01:12:04;;;;;;;13.00;7.10;;;;;;;-3.74;100.00;150421.75;5017664;28;20444;-88
2024/01/21 01:14:30;;;;;;;10.80;8.53;;;;;;;-3.74;100.00;150420.47;5011586;28;20895;-88
2024/01/21 01:16:58;;;;;;;11.10;7.90;;;;;;;-3.81;100.00;150403.81;5012262;28;20446;-89
2024/01/21 01:19:24;;;;;;;11.53;8.30;;;;;;;-3.88;100.00;150385.94;5027459;28;20425;-89
2024/01/21 01:21:51;;;;;;;11.47;7.90;;;;;;;-3.88;100.00;150384.66;5015375;28;20969;-89
2024/01/21 01:24:19;;;;;;;11.47;7.50;;;;;;;-3.91;100.00;150378.25;5030581;28;20528;-89
2024/01/21 01:26:47;;;;;;;11.80;8.20;;;;;;;-3.92;100.00;150375.69;5030793;28;20468;-89
2024/01/21 01:29:14;;;;;;;12.20;8.20;;;;;;;-3.93;100.00;150371.88;5013885;28;20467;-89
2024/01/21 01:31:42;;;;;;;10.43;8.10;;;;;;;-3.94;100.00;150370.56;5029051;28;20427;-89
2024/01/21 01:34:10;;;;;;;12.60;8.50;;;;;;;-3.91;100.00;150376.97;5028762;28;20457;-89
2024/01/21 01:36:37;;;;;;;11.53;7.57;;;;;;;-3.94;100.00;150370.56;5035793;28;21146;-89
2024/01/21 01:39:03;;;;;;;11.67;9.00;;;;;;;-3.99;100.00;150357.81;5013420;28;20449;-89
2024/01/21 01:41:30;;;;;;;10.50;8.33;;;;;;;-3.97;100.00;150361.66;5047137;28;20908;-89
2024/01/21 01:43:57;;;;;;;11.67;8.20;;;;;;;-3.96;100.00;150364.19;5029056;28;20522;-89
2024/01/21 01:46:24;;;;;;;13.87;8.13;;;;;;;-3.99;100.00;150356.50;5047584;28;20856;-89
2024/01/21 01:48:51;;;;;;;10.67;7.10;;;;;;;-3.96;100.00;150364.19;5025834;28;20996;-89
2024/01/21 01:51:17;;;;;;;10.80;7.03;;;;;;;-3.95;100.00;150368.06;5029823;28;20483;-89
2024/01/21 01:53:44;;;;;;;10.77;7.93;;;;;;;-3.92;100.00;150375.69;5013479;28;20972;-89
2024/01/21 01:56:12;;;;;;;10.93;7.13;;;;;;;-3.91;100.00;150378.25;5027822;28;20453;-89
2024/01/21 01:58:39;;;;;;;10.77;7.10;;;;;;;-3.87;100.00;150388.50;5028431;28;20425;-89
2024/01/21 02:01:07;;;;;;;8.77;6.33;;;;;;;-3.87;100.00;150388.50;5027363;28;20551;-88
2024/01/21 02:03:33;;;;;;;10.87;6.47;;;;;;;-3.88;100.00;150385.94;5029208;28;20454;-89
2024/01/21 02:06:00;;;;;;;9.27;6.47;;;;;;;-3.86;100.00;150391.03;5013088;28;21079;-89
2024/01/21 02:08:26;;;;;;;11.03;6.73;;;;;;;-3.84;100.00;150396.16;5012909;28;20516;-89
2024/01/21 02:11:09;;;;;;;10.33;6.50;;;;;;;-3.81;100.00;150403.81;5013122;28;20422;-89
2024/01/21 02:13:36;;;;;;;10.70;7.07;;;;;;;-3.81;100.00;150403.81;5025436;28;20978;-89
2024/01/21 02:16:03;;;;;;;11.37;7.03;;;;;;;-3.78;100.00;150410.22;5026850;28;20485;-89
2024/01/21 02:18:31;;;;;;;8.53;5.83;;;;;;;-3.78;100.00;150411.50;5016014;28;20442;-89
2024/01/21 02:20:58;;;;;;;11.00;7.90;;;;;;;-3.76;100.00;150416.59;5012277;28;20434;-89
2024/01/21 02:23:26;;;;;;;11.20;7.07;;;;;;;-3.75;100.00;150417.91;5005460;28;20438;-88
2024/01/21 02:25:52;;;;;;;13.60;6.90;;;;;;;-3.77;100.00;150414.06;5047791;28;20450;-88
2024/01/21 02:28:19;;;;;;;9.50;6.40;;;;;;;-3.78;100.00;150410.22;5034147;28;20970;-89
2024/01/21 02:30:45;;;;;;;9.50;6.60;;;;;;;-3.78;100.00;150410.22;5035643;28;20453;-88
2024/01/21 02:33:13;;;;;;;9.03;6.50;;;;;;;-3.79;100.00;150408.97;5030659;28;20442;-88
2024/01/21 02:35:39;;;;;;;10.20;6.90;;;;;;;-3.81;100.00;150403.81;5031487;28;20446;-89
2024/01/21 02:38:06;;;;;;;13.93;8.90;;;;;;;-3.82;100.00;150401.28;5033430;28;20417;-89
2024/01/21 02:40:35;;;;;;;9.90;6.70;;;;;;;-3.81;100.00;150403.81;5031512;28;20473;-88
2024/01/21 02:43:03;;;;;;;10.10;6.70;;;;;;;-3.86;100.00;150391.03;5032909;28;20523;-89
2024/01/21 02:45:30;;;;;;;9.07;6.90;;;;;;;-3.90;100.00;150379.53;5031433;28;20479;-89
2024/01/21 02:47:56;;;;;;;10.60;7.13;;;;;;;-3.95;100.00;150368.06;5006076;28;20464;-88
2024/01/21 02:50:23;;;;;;;10.40;7.60;;;;;;;-3.98;100.00;150359.09;5011418;28;20450;-88
2024/01/21 02:52:49;;;;;;;11.17;8.40;;;;;;;-4.00;100.00;150354.00;5020770;28;20444;-88
2024/01/21 02:55:16;;;;;;;15.67;8.53;;;;;;;-4.01;100.00;150352.69;5018802;28;20422;-88
2024/01/21 02:57:44;;;;;;;8.30;7.50;;;;;;;-4.02;100.00;150350.13;4998076;28;20440;-88
2024/01/21 03:00:11;;;;;;;10.27;8.50;;;;;;;-4.07;100.00;150337.34;5007750;28;20967;-87
2024/01/21 03:02:38;;;;;;;10.67;7.57;;;;;;;-4.10;100.00;150329.66;5010688;28;20538;-88
2024/01/21 03:05:05;;;;;;;11.53;8.83;;;;;;;-4.15;100.00;150316.88;5011816;28;20448;-88
2024/01/21 03:07:31;;;;;;;8.83;7.27;;;;;;;-4.16;100.00;150314.34;5009270;28;20965;-88
2024/01/21 03:09:58;;;;;;;9.10;7.60;;;;;;;-4.17;100.00;150311.78;5005619;28;20524;-88
2024/01/21 03:12:24;;;;;;;13.70;8.27;;;;;;;-4.19;100.00;150306.69;4995883;28;20452;-88
2024/01/21 03:14:52;;;;;;;7.73;5.87;;;;;;;-4.21;100.00;150301.59;5004590;28;20837;-88
2024/01/21 03:17:18;;;;;;;12.67;7.80;;;;;;;-4.23;100.00;150296.44;5008018;28;20451;-88
2024/01/21 03:19:45;;;;;;;11.80;7.90;;;;;;;-4.25;100.00;150291.31;4994367;28;20463;-88
2024/01/21 03:22:11;;;;;;;10.17;7.63;;;;;;;-4.26;100.00;150287.50;4996401;28;20439;-88
2024/01/21 03:24:38;;;;;;;10.63;7.33;;;;;;;-4.26;100.00;150287.50;4995711;28;20442;-88
2024/01/21 03:27:05;;;;;;;7.53;5.97;;;;;;;-4.27;100.00;150284.94;5013500;28;20426;-88
2024/01/21 03:29:31;;;;;;;9.63;7.60;;;;;;;-4.27;100.00;150286.22;4998470;28;20450;-87
2024/01/21 03:32:00;;;;;;;11.63;7.37;;;;;;;-4.29;100.00;150281.13;4996173;28;20410;-88
2024/01/21 03:34:26;;;;;;;8.37;6.70;;;;;;;-4.27;100.00;150286.22;4993611;28;20526;-88
2024/01/21 03:36:53;;;;;;;11.87;7.30;;;;;;;-4.27;100.00;150286.22;4995182;28;20506;-88
2024/01/21 03:39:19;;;;;;;11.63;7.30;;;;;;;-4.28;100.00;150282.38;4997481;28;20452;-88
2024/01/21 03:41:47;;;;;;;10.07;7.37;;;;;;;-4.29;100.00;150281.13;4987782;28;20434;-88
2024/01/21 03:44:14;;;;;;;11.77;8.23;;;;;;;-4.27;100.00;150286.22;4995887;28;20535;-87
2024/01/21 03:46:41;;;;;;;8.03;6.63;;;;;;;-4.28;100.00;150283.66;5009942;28;20453;-87
2024/01/21 03:49:09;;;;;;;11.47;7.17;;;;;;;-4.30;100.00;150278.56;5017213;28;20465;-88
2024/01/21 03:51:35;;;;;;;9.80;6.30;;;;;;;-4.33;100.00;150270.88;4992419;28;20448;-88
2024/01/21 03:54:02;;;;;;;9.70;7.37;;;;;;;-4.34;100.00;150269.59;4995131;28;20441;-87
2024/01/21 03:56:28;;;;;;;7.77;5.97;;;;;;;-4.34;100.00;150268.31;4999051;28;20787;-87
2024/01/21 03:58:55;;;;;;;9.97;7.40;;;;;;;-4.34;100.00;150268.31;5001820;28;20413;-88
2024/01/21 04:01:22;;;;;;;8.90;6.80;;;;;;;-4.35;100.00;150267.06;4995660;28;20414;-87
2024/01/21 04:03:48;;;;;;;10.47;6.67;;;;;;;-4.36;100.00;150264.50;4994385;28;20437;-87
2024/01/21 04:06:16;;;;;;;9.30;7.50;;;;;;;-4.37;100.00;150260.69;5000497;28;20422;-88
2024/01/21 04:08:43;;;;;;;8.40;5.33;;;;;;;-4.39;100.00;150256.81;4995531;28;20426;-88
2024/01/21 04:11:09;;;;;;;9.17;6.10;;;;;;;-4.37;100.00;150260.69;5011600;28;20938;-87
2024/01/21 04:13:36;;;;;;;9.30;6.83;;;;;;;-4.36;100.00;150263.19;4999288;28;20581;-87
2024/01/21 04:16:03;;;;;;;9.53;6.03;;;;;;;-4.36;100.00;150264.50;4994343;28;20451;-87
2024/01/21 04:18:29;;;;;;;5.40;4.87;;;;;;;-4.36;100.00;150264.50;4999549;28;20426;-87
2024/01/21 04:20:56;;;;;;;7.77;6.07;;;;;;;-4.34;100.00;150268.31;5019127;28;20830;-87
2024/01/21 04:23:23;;;;;;;7.30;5.60;;;;;;;-4.31;100.00;150277.28;4996036;28;20456;-87
2024/01/21 04:25:51;;;;;;;5.23;4.70;;;;;;;-4.28;100.00;150283.66;5014853;28;20448;-87
2024/01/21 04:28:18;;;;;;;6.43;4.77;;;;;;;-4.28;100.00;150283.66;5010840;28;20436;-87
2024/01/21 04:30:45;;;;;;;9.00;5.10;;;;;;;-4.27;100.00;150284.94;4993123;28;20836;-88
2024/01/21 04:33:11;;;;;;;5.53;4.93;;;;;;;-4.27;100.00;150286.22;5009452;28;20838;-87
2024/01/21 04:35:38;;;;;;;7.60;5.50;;;;;;;-4.28;100.00;150283.66;5028872;28;20427;-87
2024/01/21 04:38:04;;;;;;;6.47;5.20;;;;;;;-4.28;100.00;150283.66;4994552;28;20688;-88
2024/01/21 04:40:32;;;;;;;5.93;4.63;;;;;;;-4.29;100.00;150281.13;4991736;28;20485;-87
2024/01/21 04:42:59;;;;;;;7.67;5.10;;;;;;;-4.29;100.00;150281.13;5013498;28;20458;-87
2024/01/21 04:45:25;;;;;;;8.13;5.50;;;;;;;-4.26;100.00;150287.50;5008406;28;21044;-87
2024/01/21 04:47:52;;;;;;;7.00;6.00;;;;;;;-4.20;100.00;150302.81;5020791;28;21068;-88
2024/01/21 04:50:18;;;;;;;5.13;4.23;;;;;;;-4.20;100.00;150304.09;5011148;28;20478;-88
2024/01/21 04:52:45;;;;;;;7.33;5.93;;;;;;;-4.20;100.00;150304.09;5012512;28;20433;-87
2024/01/21 04:55:12;;;;;;;5.87;5.00;;;;;;;-4.20;100.00;150304.09;5012379;28;20438;-87
2024/01/21 04:57:39;;;;;;;7.43;5.43;;;;;;;-4.19;100.00;150306.69;5027364;28;20432;-87
2024/01/21 05:00:07;;;;;;;7.60;4.83;;;;;;;-4.18;100.00;150307.97;5026909;28;20554;-87
2024/01/21 05:02:34;;;;;;;7.17;4.83;;;;;;;-4.19;100.00;150305.41;5030618;28;20435;-87
2024/01/21 05:05:00;;;;;;;7.27;5.10;;;;;;;-4.19;100.00;150306.69;5013638;28;20409;-87
2024/01/21 05:07:27;;;;;;;7.50;5.10;;;;;;;-4.20;100.00;150304.09;5028139;28;20430;-87
2024/01/21 05:09:53;;;;;;;6.77;5.17;;;;;;;-4.21;100.00;150301.59;5025023;28;20844;-86
2024/01/21 05:12:20;;;;;;;6.97;4.67;;;;;;;-4.22;100.00;150297.72;5043064;28;20746;-86
2024/01/21 05:14:48;;;;;;;6.43;4.83;;;;;;;-4.23;100.00;150296.44;5028988;28;20795;-87
2024/01/21 05:17:14;;;;;;;7.30;4.77;;;;;;;-4.26;100.00;150288.75;5014776;28;20430;-87
2024/01/21 05:19:41;;;;;;;7.40;4.87;;;;;;;-4.28;100.00;150282.38;5005716;28;20426;-86
2024/01/21 05:22:07;;;;;;;7.47;5.07;;;;;;;-4.30;100.00;150278.56;5034550;28;20413;-87
2024/01/21 05:24:35;;;;;;;6.93;4.73;;;;;;;-4.30;100.00;150278.56;5015552;28;20811;-87
2024/01/21 05:27:02;;;;;;;7.37;5.33;;;;;;;-4.30;100.00;150278.56;5028909;28;20530;-86
2024/01/21 05:29:28;;;;;;;6.43;5.00;;;;;;;-4.27;100.00;150286.22;5032473;28;20448;-87
2024/01/21 05:31:56;;;;;;;6.20;4.20;;;;;;;-4.25;100.00;150291.31;5033527;28;20473;-87
2024/01/21 05:34:22;;;;;;;7.10;5.57;;;;;;;-4.29;100.00;150279.84;5016224;28;20414;-86
2024/01/21 05:36:49;;;;;;;8.90;6.00;;;;;;;-4.30;100.00;150278.56;5027994;28;20462;-86
2024/01/21 05:39:16;;;;;;;8.17;5.40;;;;;;;-4.32;100.00;150273.44;5024208;28;20928;-86
2024/01/21 05:41:43;;;;;;;8.80;5.87;;;;;;;-4.33;100.00;150270.88;5016290;28;20484;-86
2024/01/21 05:44:09;;;;;;;5.97;4.73;;;;;;;-4.36;100.00;150264.50;5014812;28;20420;-86
2024/01/21 05:46:36;;;;;;;6.10;4.13;;;;;;;-4.36;100.00;150264.50;5015388;28;20806;-87
2024/01/21 05:49:06;;;;;;;5.90;4.70;;;;;;;-4.35;100.00;150265.78;5011164;28;20448;-86
2024/01/21 05:51:32;;;;;;;6.93;4.87;;;;;;;-4.36;100.00;150263.19;5025590;28;20435;-86
2024/01/21 05:53:59;;;;;;;7.10;5.13;;;;;;;-4.35;100.00;150265.78;4998929;28;20967;-87
2024/01/21 05:56:25;;;;;;;7.43;5.77;;;;;;;-4.33;100.00;150270.88;5012457;28;20433;-86
2024/01/21 05:58:51;;;;;;;6.43;4.90;;;;;;;-4.32;100.00;150273.44;5030685;28;20805;-87
2024/01/21 06:01:18;;;;;;;4.83;4.30;;;;;;;-4.31;100.00;150277.28;5012172;28;20445;-87
2024/01/21 06:03:44;;;;;;;7.80;5.53;;;;;;;-4.27;100.00;150286.22;5017109;28;20206;-87
2024/01/21 06:06:12;;;;;;;7.83;4.87;;;;;;;-4.26;100.00;150288.75;5024470;28;20436;-86
2024/01/21 06:08:39;;;;;;;6.93;5.27;;;;;;;-4.26;100.00;150288.75;5019455;28;20480;-87
2024/01/21 06:11:07;;;;;;;6.10;4.83;;;;;;;-4.29;100.00;150281.13;5021779;28;20469;-86
2024/01/21 06:13:34;;;;;;;11.20;5.00;;;;;;;-4.29;100.00;150281.13;5019295;28;20448;-87
2024/01/21 06:16:07;;;;;;;6.97;5.13;;;;;;;-4.30;100.00;150278.56;5023875;28;20425;-86
2024/01/21 06:19:22;;;;;;;5.60;5.00;;;;;;;-4.36;100.00;150264.50;5035953;28;20971;-87
2024/01/21 06:22:09;;;;;;;7.40;4.40;;;;;;;-4.41;100.00;150250.44;5012144;28;20504;-86
2024/01/21 06:24:36;;;;;;;5.60;4.70;;;;;;;-4.44;100.00;150242.75;5017972;28;20464;-86
2024/01/21 06:27:03;;;;;;;5.87;4.57;;;;;;;-4.50;100.00;150227.44;5018446;28;20790;-86
2024/01/21 06:29:29;;;;;;;8.27;5.37;;;;;;;-4.54;100.00;150217.19;5034236;28;20777;-86
2024/01/21 06:31:59;;;;;;;8.40;5.63;;;;;;;-4.56;100.00;150212.09;5002408;28;20426;-86
2024/01/21 06:34:26;;;;;;;6.57;5.40;;;;;;;-4.58;100.00;150207.00;5017773;28;20448;-86
2024/01/21 06:36:55;;;;;;;6.67;5.10;;;;;;;-4.59;100.00;150205.72;5004095;28;20438;-86
2024/01/21 06:39:25;;;;;;;7.27;5.73;;;;;;;-4.58;100.00;150207.00;5016316;28;20454;-86
2024/01/21 06:41:52;;;;;;;6.60;5.67;;;;;;;-4.57;100.00;150209.53;5031792;28;20491;-86
2024/01/21 06:44:21;;;;;;;9.80;5.10;;;;;;;-4.58;100.00;150208.25;5007694;28;20433;-86
2024/01/21 06:46:50;;;;;;;5.97;4.63;;;;;;;-4.58;100.00;150207.00;5034522;28;20448;-85
2024/01/21 06:49:17;;;;;;;6.30;5.10;;;;;;;-4.59;100.00;150204.44;5033017;28;20432;-86
2024/01/21 06:51:46;;;;;;;7.33;5.10;;;;;;;-4.58;100.00;150207.00;5001260;28;20537;-86
2024/01/21 06:54:16;;;;;;;6.40;5.13;;;;;;;-4.54;100.00;150217.19;5014598;28;20795;-86
2024/01/21 06:56:44;;;;;;;6.73;4.60;;;;;;;-4.53;100.00;150219.78;4997452;28;20436;-86
2024/01/21 06:59:11;;;;;;;7.87;5.47;;;;;;;-4.52;100.00;150222.31;5034110;28;20418;-86
2024/01/21 07:01:37;;;;;;;8.60;6.17;;;;;;;-4.50;100.00;150227.44;5016186;28;20434;-87
2024/01/21 07:04:04;;;;;;;8.53;5.17;;;;;;;-4.49;100.00;150229.97;5018727;28;20448;-86
2024/01/21 07:06:31;;;;;;;7.77;5.80;;;;;;;-4.46;100.00;150237.66;5017070;28;20447;-86
2024/01/21 07:09:00;;;;;;;6.47;5.10;;;;;;;-4.49;100.00;150231.25;5033734;28;20510;-86
2024/01/21 07:11:27;;;;;;;7.50;5.40;;;;;;;-4.47;100.00;150236.38;5021611;28;20454;-86
2024/01/21 07:13:55;;;;;;;8.47;6.20;;;;;;;-4.45;100.00;150240.22;5038440;28;20457;-86
2024/01/21 07:16:22;;;;;;;6.90;5.20;;;;;;;-4.45;100.00;150240.22;5004550;28;20928;-86
2024/01/21 07:18:48;;;;;;;6.57;4.60;;;;;;;-4.43;100.00;150245.31;5020088;28;20447;-86
2024/01/21 07:21:18;;;;;;;5.63;5.03;;;;;;;-4.39;100.00;150255.53;5023112;28;20550;-85
2024/01/21 07:23:47;;;;;;;7.17;6.27;;;;;;;-4.35;100.00;150267.06;5013913;28;20447;-85
2024/01/21 07:28:52;;;;;;;5.60;4.50;;;;;;;-4.26;100.00;150288.75;4979809;28;20490;-79
2024/01/21 07:31:19;;;;;;;7.10;5.40;;;;;;;-4.21;100.00;150301.59;4951513;28;20548;-79
2024/01/21 07:33:46;;;;;;;6.20;5.20;;;;;;;-4.14;100.00;150319.47;4978388;28;20852;-79
2024/01/21 07:36:13;;;;;;;5.87;5.00;;;;;;;-4.09;100.00;150332.25;4980214;28;20432;-78
2024/01/21 07:38:40;;;;;;;9.30;5.40;;;;;;;-4.03;100.00;150347.59;4979605;28;20528;-78
2024/01/21 07:41:08;;;;;;;8.83;6.20;;;;;;;-3.96;100.00;150365.47;4947649;28;20445;-79
2024/01/21 07:43:35;;;;;;;6.70;5.23;;;;;;;-3.86;100.00;150389.75;4964162;28;20436;-78
2024/01/21 07:46:05;;;;;;;6.30;5.70;;;;;;;-3.66;100.00;150439.66;4961817;28;20456;-80
2024/01/21 07:48:34;;;;;;;8.30;5.47;;;;;;;-3.54;100.00;150471.59;4980029;28;20793;-80
2024/01/21 07:51:01;;;;;;;9.23;5.80;;;;;;;-3.39;100.00;150508.72;4978689;28;20469;-80
2024/01/21 07:53:30;;;;;;;6.63;5.63;;;;;;;-3.33;100.00;150525.31;4964025;28;20437;-80
2024/01/21 07:55:57;;;;;;;9.77;5.97;;;;;;;-3.37;100.00;150513.84;4959382;28;20543;-80
2024/01/21 07:58:23;;;;;;;8.80;6.00;;;;;;;-3.48;100.00;150485.69;4981853;28;21163;-80
2024/01/21 08:00:53;;;;;;;8.70;5.70;;;;;;;-3.55;100.00;150467.78;4981391;28;20466;-80
2024/01/21 08:03:19;;;;;;;5.37;4.83;;;;;;;-3.58;100.00;150460.09;4985841;28;20459;-80
2024/01/21 08:05:47;;;;;;;11.43;7.10;;;;;;;-3.60;100.00;150455.00;4984137;28;20453;-80
2024/01/21 08:08:14;;;;;;;8.80;6.37;;;;;;;-3.61;100.00;150453.72;4988643;28;20457;-80
2024/01/21 08:10:40;;;;;;;8.10;6.87;;;;;;;-3.61;100.00;150453.72;4964756;28;20474;-80
2024/01/21 08:13:07;;;;;;;12.50;8.40;;;;;;;-3.56;100.00;150465.22;4986045;28;20458;-80
2024/01/21 08:15:33;;;;;;;8.37;6.83;;;;;;;-3.52;100.00;150475.47;4969973;28;20466;-79
2024/01/21 08:18:00;;;;;;;8.50;6.23;;;;;;;-3.48;100.00;150485.69;4983038;28;20508;-80
2024/01/21 08:20:27;;;;;;;8.53;6.13;;;;;;;-3.45;100.00;150493.38;4978819;28;20463;-80
2024/01/21 08:22:55;;;;;;;8.50;6.87;;;;;;;-3.41;100.00;150503.56;4978441;28;20868;-80
2024/01/21 08:25:21;;;;;;;11.17;7.90;;;;;;;-3.35;100.00;150520.22;4977692;28;20442;-80
2024/01/21 08:27:48;;;;;;;8.60;6.20;;;;;;;-3.28;100.00;150536.84;4951755;28;21033;-81
2024/01/21 08:30:15;;;;;;;11.17;7.50;;;;;;;-3.27;100.00;150539.41;4956261;28;20466;-80
2024/01/21 08:32:42;;;;;;;8.93;7.87;;;;;;;-3.26;100.00;150541.97;4960870;28;20442;-80
2024/01/21 08:35:09;;;;;;;9.73;7.93;;;;;;;-3.25;100.00;150544.50;4945649;28;20461;-80
2024/01/21 08:37:36;;;;;;;12.33;7.00;;;;;;;-3.23;100.00;150549.66;4948499;28;20505;-80
2024/01/21 08:40:06;;;;;;;9.83;8.00;;;;;;;-3.21;100.00;150554.78;4942842;28;20459;-80
2024/01/21 08:42:33;;;;;;;11.83;7.93;;;;;;;-3.20;100.00;150557.31;4965833;28;20506;-80
2024/01/21 08:44:59;;;;;;;10.40;7.07;;;;;;;-3.21;100.00;150554.78;4947463;28;20455;-80
2024/01/21 08:47:26;;;;;;;9.13;6.77;;;;;;;-3.22;100.00;150552.19;4958670;28;20466;-80
2024/01/21 08:49:52;;;;;;;10.03;7.30;;;;;;;-3.17;100.00;150565.00;4959924;28;20837;-80
2024/01/21 08:52:19;;;;;;;10.60;7.23;;;;;;;-3.11;100.00;150581.66;4959511;28;21005;-80
2024/01/21 08:54:45;;;;;;;10.00;7.67;;;;;;;-3.05;100.00;150594.44;4960654;28;20524;-80
2024/01/21 08:57:13;;;;;;;12.00;8.17;;;;;;;-3.01;100.00;150605.94;4951605;28;20446;-80
2024/01/21 08:59:40;;;;;;;7.47;6.70;;;;;;;-3.00;100.00;150608.50;4942692;28;20823;-80
2024/01/21 09:02:06;;;;;;;11.57;7.50;;;;;;;-2.94;100.00;150623.88;4967425;28;20461;-80
2024/01/21 09:04:33;;;;;;;8.40;7.13;;;;;;;-2.88;100.00;150639.22;4964041;28;21022;-80
2024/01/21 09:06:59;;;;;;;8.83;7.40;;;;;;;-2.81;100.00;150655.88;4935607;28;20465;-80
2024/01/21 09:09:26;;;;;;;10.00;7.23;;;;;;;-2.76;100.00;150668.66;4961326;28;20546;-80
2024/01/21 09:11:54;;;;;;;10.73;8.10;;;;;;;-2.73;100.00;150676.34;4962894;28;20541;-80
2024/01/21 09:14:23;;;;;;;9.20;6.70;;;;;;;-2.70;100.00;150684.03;4944143;28;20530;-80
2024/01/21 09:16:49;;;;;;;10.07;8.07;;;;;;;-2.67;100.00;150692.97;4948030;28;20448;-80
2024/01/21 09:19:16;;;;;;;9.27;8.10;;;;;;;-2.63;100.00;150701.94;4960803;28;21087;-80
2024/01/21 09:21:43;;;;;;;10.77;8.33;;;;;;;-2.65;100.00;150698.06;4958999;28;20459;-80
2024/01/21 09:24:09;;;;;;;7.47;6.50;;;;;;;-2.61;100.00;150708.34;4956698;28;20521;-80
2024/01/21 09:26:36;;;;;;;10.23;7.20;;;;;;;-2.63;100.00;150703.22;4961424;28;20995;-80
2024/01/21 09:29:03;;;;;;;10.40;7.27;;;;;;;-2.60;100.00;150710.91;4938551;28;24831;-80
2024/01/21 09:31:31;;;;;;;11.87;7.57;;;;;;;-2.59;100.00;150713.44;4955486;28;20471;-80
2024/01/21 09:33:57;;;;;;;10.30;7.67;;;;;;;-2.57;100.00;150718.56;4957178;28;20957;-80
2024/01/21 09:36:24;;;;;;;13.40;8.87;;;;;;;-2.53;100.00;150728.81;4957456;28;20454;-80
2024/01/21 09:38:52;;;;;;;13.10;8.70;;;;;;;-2.50;100.00;150736.50;4938457;28;20462;-80
2024/01/21 09:41:24;;;;;;;11.80;9.17;;;;;;;-2.46;100.00;150746.72;4960072;28;20512;-80
2024/01/21 09:43:51;;;;;;;9.80;7.37;;;;;;;-2.39;100.00;150762.09;4954159;28;20986;-80
2024/01/21 09:46:17;;;;;;;8.57;7.40;;;;;;;-2.35;100.00;150772.31;4938481;28;20865;-80
2024/01/21 09:48:46;;;;;;;16.30;11.27;;;;;;;-2.37;100.00;150767.22;4943234;28;20898;-80
2024/01/21 09:51:12;;;;;;;11.50;8.10;;;;;;;-2.34;100.00;150776.19;4943657;28;20465;-80
2024/01/21 09:53:39;;;;;;;10.13;8.17;;;;;;;-2.30;100.00;150785.19;4941620;28;20521;-80
2024/01/21 09:56:07;;;;;;;11.13;7.20;;;;;;;-2.26;100.00;150795.41;4945837;28;20802;-80
2024/01/21 09:58:35;;;;;;;12.07;7.87;;;;;;;-2.21;100.00;150808.19;4960345;28;20546;-80
2024/01/21 10:01:02;;;;;;;9.80;7.77;;;;;;;-2.19;100.00;150813.31;4957589;28;20550;-80
2024/01/21 10:03:29;;;;;;;10.63;8.00;;;;;;;-2.20;100.00;150812.06;4958857;28;20457;-80
2024/01/21 10:05:57;;;;;;;12.27;8.30;;;;;;;-2.15;100.00;150824.88;4943346;28;20516;-79
2024/01/21 10:08:24;;;;;;;11.37;8.50;;;;;;;-2.10;100.00;150836.38;4959148;28;20455;-80
2024/01/21 10:10:50;;;;;;;12.83;8.60;;;;;;;-2.05;100.00;150850.47;4958807;28;20455;-80
2024/01/21 10:13:17;;;;;;;16.60;8.00;;;;;;;-2.01;100.00;150860.69;4941188;28;20525;-80
2024/01/21 10:15:44;;;;;;;10.90;7.80;;;;;;;-1.92;100.00;150883.78;4945906;28;20455;-79
2024/01/21 10:18:10;;;;;;;10.23;8.00;;;;;;;-1.83;100.00;150904.28;4959204;28;20463;-79
2024/01/21 10:20:37;;;;;;;11.80;8.43;;;;;;;-1.85;100.00;150901.69;4953393;28;20545;-78
2024/01/21 10:23:10;;;;;;;10.33;7.90;;;;;;;-1.81;100.00;150909.38;4947315;28;20474;-78
2024/01/21 10:25:38;;;;;;;8.33;7.00;;;;;;;-1.73;100.00;150931.19;4956529;28;20592;-79
2024/01/21 10:28:05;;;;;;;12.93;8.67;;;;;;;-1.73;100.00;150931.19;4938599;28;20490;-79
2024/01/21 10:30:32;;;;;;;12.50;8.30;;;;;;;-1.65;100.00;150951.69;4957712;28;20550;-79
2024/01/21 10:32:59;;;;;;;10.67;8.13;;;;;;;-1.61;100.00;150960.63;4957599;28;20494;-78
2024/01/21 10:35:25;;;;;;;11.67;8.13;;;;;;;-1.58;100.00;150969.59;4959230;28;20576;-79
2024/01/21 10:37:52;;;;;;;13.27;8.70;;;;;;;-1.55;100.00;150977.28;4929561;28;20452;-79
2024/01/21 10:40:19;;;;;;;12.77;8.70;;;;;;;-1.45;100.00;151002.91;4951388;28;20464;-79
2024/01/21 10:42:53;;;;;;;10.57;7.80;;;;;;;-1.37;100.00;151023.44;4956222;28;20914;-79
2024/01/21 10:45:20;;;;;;;14.53;9.90;;;;;;;-1.22;100.00;151061.88;4930980;28;20533;-79
2024/01/21 10:47:48;;;;;;;11.50;9.07;;;;;;;-1.07;100.00;151097.78;4942900;28;20462;-79
2024/01/21 10:50:15;;;;;;;11.73;8.43;;;;;;;-1.08;100.00;151096.47;4959155;28;21041;-79
2024/01/21 10:52:44;;;;;;;12.13;8.23;;;;;;;-1.01;100.00;151114.47;4947948;28;20838;-79
2024/01/21 10:55:11;;;;;;;9.37;8.20;;;;;;;-0.92;100.00;151136.22;4943871;28;20470;-79
2024/01/21 10:57:39;;;;;;;11.57;8.87;;;;;;;-0.86;100.00;151151.63;4957327;28;20470;-78
2024/01/21 11:00:09;;;;;;;11.90;8.73;;;;;;;-0.82;100.00;151161.91;4958018;28;21056;-78
2024/01/21 11:02:36;;;;;;;12.97;9.97;;;;;;;-0.77;100.00;151174.72;4959228;28;20552;-79
2024/01/21 11:05:02;;;;;;;13.53;9.30;;;;;;;-0.72;100.00;151188.81;4946034;28;20545;-79
2024/01/21 11:07:31;;;;;;;10.67;8.30;;;;;;;-0.67;100.00;151200.34;4944268;28;20474;-78
2024/01/21 11:10:03;;;;;;;12.87;9.07;;;;;;;-0.61;100.00;151217.00;4940346;28;20504;-78
2024/01/21 11:12:30;;;;;;;9.30;7.00;;;;;;;-0.51;100.00;151241.41;4944416;28;20473;-79
2024/01/21 11:15:29;;;;;;;11.43;7.80;;;;;;;-0.41;100.00;151267.03;4959183;28;20803;-79